sensor_id;sensor_type;location;lat;lon;timestamp;pressure;altitude;pressure_sealevel;temperature;humidity
58239;BME280;44037;55.638;37.356;2023-04-21T00:01:03;99255.16;;;9.62;29.98
58239;BME280;44037;55.638;37.356;2023-04-21T00:03:33;99257.72;;;9.60;30.15
58239;BME280;44037;55.638;37.356;2023-04-21T00:06:03;99254.25;;;9.57;29.97
58239;BME280;44037;55.638;37.356;2023-04-21T00:08:32;99247.34;;;9.54;30.11
58239;BME280;44037;55.638;37.356;2023-04-21T00:11:02;99248.16;;;9.50;30.38
58239;BME280;44037;55.638;37.356;2023-04-21T00:13:32;99251.56;;;9.46;30.57
58239;BME280;44037;55.638;37.356;2023-04-21T00:15:59;99252.47;;;9.45;30.62
58239;BME280;44037;55.638;37.356;2023-04-21T00:18:27;99251.59;;;9.43;30.63
58239;BME280;44037;55.638;37.356;2023-04-21T00:20:54;99248.97;;;9.41;30.60
58239;BME280;44037;55.638;37.356;2023-04-21T00:23:21;99242.06;;;9.40;30.82
58239;BME280;44037;55.638;37.356;2023-04-21T00:25:48;99246.38;;;9.38;30.98
58239;BME280;44037;55.638;37.356;2023-04-21T00:28:16;99242.91;;;9.36;30.55
58239;BME280;44037;55.638;37.356;2023-04-21T00:30:46;99254.06;;;9.32;30.66
58239;BME280;44037;55.638;37.356;2023-04-21T00:33:13;99259.25;;;9.30;30.44
58239;BME280;44037;55.638;37.356;2023-04-21T00:35:40;99247.13;;;9.26;30.68
58239;BME280;44037;55.638;37.356;2023-04-21T00:38:07;99244.50;;;9.23;30.47
58239;BME280;44037;55.638;37.356;2023-04-21T00:40:34;99244.47;;;9.20;30.65
58239;BME280;44037;55.638;37.356;2023-04-21T00:43:05;99237.53;;;9.14;30.58
58239;BME280;44037;55.638;37.356;2023-04-21T00:45:32;99239.25;;;9.11;30.58
58239;BME280;44037;55.638;37.356;2023-04-21T00:48:00;99235.78;;;9.07;30.92
58239;BME280;44037;55.638;37.356;2023-04-21T00:50:28;99241.78;;;9.04;30.75
58239;BME280;44037;55.638;37.356;2023-04-21T00:52:56;99232.25;;;8.99;30.76
58239;BME280;44037;55.638;37.356;2023-04-21T00:55:24;99232.19;;;8.93;30.85
58239;BME280;44037;55.638;37.356;2023-04-21T00:57:51;99226.13;;;8.89;31.32
58239;BME280;44037;55.638;37.356;2023-04-21T01:00:19;99225.22;;;8.84;31.52
58239;BME280;44037;55.638;37.356;2023-04-21T01:02:47;99232.91;;;8.78;31.50
58239;BME280;44037;55.638;37.356;2023-04-21T01:05:15;99229.44;;;8.75;31.45
58239;BME280;44037;55.638;37.356;2023-04-21T01:07:43;99229.41;;;8.72;31.79
58239;BME280;44037;55.638;37.356;2023-04-21T01:10:10;99224.25;;;8.69;31.73
58239;BME280;44037;55.638;37.356;2023-04-21T01:12:41;99225.94;;;8.67;31.90
58239;BME280;44037;55.638;37.356;2023-04-21T01:15:10;99218.16;;;8.64;31.91
58239;BME280;44037;55.638;37.356;2023-04-21T01:17:38;99221.56;;;8.62;31.83
58239;BME280;44037;55.638;37.356;2023-04-21T01:20:09;99223.28;;;8.61;31.54
58239;BME280;44037;55.638;37.356;2023-04-21T01:22:39;99224.13;;;8.60;31.51
58239;BME280;44037;55.638;37.356;2023-04-21T01:25:08;99219.81;;;8.56;32.15
58239;BME280;44037;55.638;37.356;2023-04-21T01:27:36;99222.28;;;8.48;31.91
58239;BME280;44037;55.638;37.356;2023-04-21T01:30:04;99217.88;;;8.41;31.87
58239;BME280;44037;55.638;37.356;2023-04-21T01:32:32;99227.25;;;8.34;32.16
58239;BME280;44037;55.638;37.356;2023-04-21T01:35:00;99228.09;;;8.32;32.40
58239;BME280;44037;55.638;37.356;2023-04-21T01:37:31;99224.66;;;8.33;32.52
58239;BME280;44037;55.638;37.356;2023-04-21T01:40:02;99226.41;;;8.34;32.21
58239;BME280;44037;55.638;37.356;2023-04-21T01:42:31;99223.78;;;8.32;32.28
58239;BME280;44037;55.638;37.356;2023-04-21T01:44:59;99216.88;;;8.29;32.43
58239;BME280;44037;55.638;37.356;2023-04-21T01:47:26;99219.44;;;8.28;32.01
58239;BME280;44037;55.638;37.356;2023-04-21T01:49:53;99224.56;;;8.26;32.11
58239;BME280;44037;55.638;37.356;2023-04-21T01:52:21;99216.81;;;8.25;32.05
58239;BME280;44037;55.638;37.356;2023-04-21T01:54:48;99216.81;;;8.25;32.65
58239;BME280;44037;55.638;37.356;2023-04-21T01:57:17;99216.81;;;8.25;32.81
58239;BME280;44037;55.638;37.356;2023-04-21T01:59:44;99212.53;;;8.25;32.55
58239;BME280;44037;55.638;37.356;2023-04-21T02:02:11;99213.34;;;8.23;32.45
58239;BME280;44037;55.638;37.356;2023-04-21T02:04:38;99215.97;;;8.24;32.25
58239;BME280;44037;55.638;37.356;2023-04-21T02:07:06;99215.97;;;8.24;32.67
58239;BME280;44037;55.638;37.356;2023-04-21T02:09:33;99220.25;;;8.24;32.42
58239;BME280;44037;55.638;37.356;2023-04-21T02:12:00;99214.25;;;8.25;32.37
58239;BME280;44037;55.638;37.356;2023-04-21T02:14:29;99218.56;;;8.26;32.19
58239;BME280;44037;55.638;37.356;2023-04-21T02:16:57;99217.72;;;8.27;32.67
58239;BME280;44037;55.638;37.356;2023-04-21T02:19:24;99221.16;;;8.27;32.13
58239;BME280;44037;55.638;37.356;2023-04-21T02:21:51;99224.63;;;8.29;32.38
58239;BME280;44037;55.638;37.356;2023-04-21T02:24:18;99225.50;;;8.33;32.08
58239;BME280;44037;55.638;37.356;2023-04-21T02:26:45;99229.00;;;8.35;32.41
58239;BME280;44037;55.638;37.356;2023-04-21T02:29:12;99221.28;;;8.40;32.65
58239;BME280;44037;55.638;37.356;2023-04-21T02:31:41;99220.50;;;8.45;32.40
58239;BME280;44037;55.638;37.356;2023-04-21T02:34:08;99214.56;;;8.51;32.39
58239;BME280;44037;55.638;37.356;2023-04-21T02:36:35;99224.13;;;8.58;32.20
58239;BME280;44037;55.638;37.356;2023-04-21T02:39:03;99217.25;;;8.62;32.13
58239;BME280;44037;55.638;37.356;2023-04-21T02:41:30;99214.72;;;8.65;32.00
58239;BME280;44037;55.638;37.356;2023-04-21T02:43:57;99218.19;;;8.70;31.72
58239;BME280;44037;55.638;37.356;2023-04-21T02:46:24;99221.72;;;8.75;31.87
58239;BME280;44037;55.638;37.356;2023-04-21T02:48:53;99220.84;;;8.76;31.94
58239;BME280;44037;55.638;37.356;2023-04-21T02:51:20;99215.66;;;8.73;31.84
58239;BME280;44037;55.638;37.356;2023-04-21T02:53:47;99213.03;;;8.70;32.04
58239;BME280;44037;55.638;37.356;2023-04-21T02:56:14;99213.91;;;8.69;31.94
58239;BME280;44037;55.638;37.356;2023-04-21T02:58:42;99213.91;;;8.69;31.89
58239;BME280;44037;55.638;37.356;2023-04-21T03:01:09;99213.03;;;8.69;31.66
58239;BME280;44037;55.638;37.356;2023-04-21T03:03:36;99213.03;;;8.67;32.05
58239;BME280;44037;55.638;37.356;2023-04-21T03:06:05;99215.59;;;8.67;31.62
58239;BME280;44037;55.638;37.356;2023-04-21T03:08:33;99219.88;;;8.65;31.83
58239;BME280;44037;55.638;37.356;2023-04-21T03:11:00;99212.97;;;8.63;32.10
58239;BME280;44037;55.638;37.356;2023-04-21T03:13:27;99218.97;;;8.60;31.88
58239;BME280;44037;55.638;37.356;2023-04-21T03:15:54;99219.81;;;8.57;31.61
58239;BME280;44037;55.638;37.356;2023-04-21T03:18:22;99220.66;;;8.55;32.24
58239;BME280;44037;55.638;37.356;2023-04-21T03:20:49;99226.63;;;8.52;32.19
58239;BME280;44037;55.638;37.356;2023-04-21T03:23:17;99224.03;;;8.51;32.28
58239;BME280;44037;55.638;37.356;2023-04-21T03:25:45;99221.44;;;8.51;32.81
58239;BME280;44037;55.638;37.356;2023-04-21T03:28:12;99231.78;;;8.51;32.78
58239;BME280;44037;55.638;37.356;2023-04-21T03:30:40;99236.09;;;8.52;33.11
58239;BME280;44037;55.638;37.356;2023-04-21T03:33:07;99230.09;;;8.53;33.09
58239;BME280;44037;55.638;37.356;2023-04-21T03:35:34;99232.72;;;8.57;33.45
58239;BME280;44037;55.638;37.356;2023-04-21T03:38:01;99225.84;;;8.61;33.51
58239;BME280;44037;55.638;37.356;2023-04-21T03:40:30;99231.06;;;8.64;33.71
58239;BME280;44037;55.638;37.356;2023-04-21T03:42:57;99221.63;;;8.68;33.84
58239;BME280;44037;55.638;37.356;2023-04-21T03:45:24;99233.78;;;8.75;33.78
58239;BME280;44037;55.638;37.356;2023-04-21T03:47:52;99230.38;;;8.81;33.54
58239;BME280;44037;55.638;37.356;2023-04-21T03:50:20;99226.09;;;8.86;33.45
58239;BME280;44037;55.638;37.356;2023-04-21T03:52:48;99230.50;;;8.93;33.87
58239;BME280;44037;55.638;37.356;2023-04-21T03:55:15;99227.09;;;8.99;33.39
58239;BME280;44037;55.638;37.356;2023-04-21T03:57:44;99225.41;;;9.02;33.74
58239;BME280;44037;55.638;37.356;2023-04-21T04:00:12;99220.25;;;9.05;33.33
58239;BME280;44037;55.638;37.356;2023-04-21T04:02:41;99230.66;;;9.13;33.43
58239;BME280;44037;55.638;37.356;2023-04-21T04:05:08;99222.91;;;9.15;33.30
58239;BME280;44037;55.638;37.356;2023-04-21T04:07:35;99227.28;;;9.20;33.89
58239;BME280;44037;55.638;37.356;2023-04-21T04:10:02;99220.44;;;9.26;33.29
58239;BME280;44037;55.638;37.356;2023-04-21T04:12:30;99217.88;;;9.33;33.51
58239;BME280;44037;55.638;37.356;2023-04-21T04:14:59;99225.69;;;9.41;33.33
58239;BME280;44037;55.638;37.356;2023-04-21T04:17:26;99218.84;;;9.46;33.36
58239;BME280;44037;55.638;37.356;2023-04-21T04:19:53;99213.69;;;9.52;33.13
58239;BME280;44037;55.638;37.356;2023-04-21T04:22:21;99216.34;;;9.57;32.67
58239;BME280;44037;55.638;37.356;2023-04-21T04:24:50;99214.63;;;9.62;33.16
58239;BME280;44037;55.638;37.356;2023-04-21T04:27:23;99209.50;;;9.68;33.39
58239;BME280;44037;55.638;37.356;2023-04-21T04:29:51;99207.81;;;9.75;32.93
58239;BME280;44037;55.638;37.356;2023-04-21T04:32:22;99217.34;;;9.82;32.91
58239;BME280;44037;55.638;37.356;2023-04-21T04:34:55;99205.28;;;9.91;32.82
58239;BME280;44037;55.638;37.356;2023-04-21T04:37:23;99206.22;;;9.99;32.76
58239;BME280;44037;55.638;37.356;2023-04-21T04:39:53;99207.13;;;10.10;32.74
58239;BME280;44037;55.638;37.356;2023-04-21T04:42:20;99212.31;;;10.17;32.04
58239;BME280;44037;55.638;37.356;2023-04-21T04:44:47;99205.44;;;10.23;31.76
58239;BME280;44037;55.638;37.356;2023-04-21T04:47:14;99210.66;;;10.29;31.69
58239;BME280;44037;55.638;37.356;2023-04-21T04:49:43;99210.66;;;10.36;31.61
58239;BME280;44037;55.638;37.356;2023-04-21T04:52:10;99209.84;;;10.44;31.56
58239;BME280;44037;55.638;37.356;2023-04-21T04:54:37;99211.59;;;10.53;30.48
58239;BME280;44037;55.638;37.356;2023-04-21T04:57:04;99215.09;;;10.58;30.95
58239;BME280;44037;55.638;37.356;2023-04-21T04:59:31;99203.84;;;10.63;30.69
58239;BME280;44037;55.638;37.356;2023-04-21T05:01:58;99209.91;;;10.68;30.96
58239;BME280;44037;55.638;37.356;2023-04-21T05:04:26;99203.88;;;10.69;30.79
58239;BME280;44037;55.638;37.356;2023-04-21T05:06:54;99199.56;;;10.71;31.35
58239;BME280;44037;55.638;37.356;2023-04-21T05:09:21;99209.06;;;10.73;30.49
58239;BME280;44037;55.638;37.356;2023-04-21T05:11:49;99206.47;;;10.78;30.39
58239;BME280;44037;55.638;37.356;2023-04-21T05:14:16;99205.63;;;10.82;31.11
58239;BME280;44037;55.638;37.356;2023-04-21T05:16:43;99203.88;;;10.87;30.16
58239;BME280;44037;55.638;37.356;2023-04-21T05:19:11;99206.47;;;10.92;30.15
58239;BME280;44037;55.638;37.356;2023-04-21T05:21:38;99191.78;;;10.94;30.05
58239;BME280;44037;55.638;37.356;2023-04-21T05:24:07;99190.09;;;10.95;30.37
58239;BME280;44037;55.638;37.356;2023-04-21T05:26:34;99184.03;;;10.97;30.23
58239;BME280;44037;55.638;37.356;2023-04-21T05:29:01;99184.03;;;11.05;30.55
58239;BME280;44037;55.638;37.356;2023-04-21T05:31:28;99178.00;;;11.14;29.73
58239;BME280;44037;55.638;37.356;2023-04-21T05:33:56;99180.56;;;11.18;30.02
58239;BME280;44037;55.638;37.356;2023-04-21T05:36:23;99184.00;;;11.24;29.72
58239;BME280;44037;55.638;37.356;2023-04-21T05:38:50;99186.63;;;11.33;30.08
58239;BME280;44037;55.638;37.356;2023-04-21T05:41:20;99186.59;;;11.42;30.29
58239;BME280;44037;55.638;37.356;2023-04-21T05:43:47;99189.19;;;11.50;29.71
58239;BME280;44037;55.638;37.356;2023-04-21T05:46:14;99191.75;;;11.56;29.18
58239;BME280;44037;55.638;37.356;2023-04-21T05:48:41;99178.78;;;11.59;28.70
58239;BME280;44037;55.638;37.356;2023-04-21T05:51:09;99181.38;;;11.65;29.64
58239;BME280;44037;55.638;37.356;2023-04-21T05:53:36;99186.53;;;11.68;28.45
58239;BME280;44037;55.638;37.356;2023-04-21T05:56:05;99188.28;;;11.71;28.87
58239;BME280;44037;55.638;37.356;2023-04-21T05:58:36;99182.19;;;11.72;28.67
58239;BME280;44037;55.638;37.356;2023-04-21T06:01:04;99172.69;;;11.76;28.76
58239;BME280;44037;55.638;37.356;2023-04-21T06:03:32;99168.31;;;11.84;29.04
58239;BME280;44037;55.638;37.356;2023-04-21T06:06:02;99171.75;;;11.94;29.11
58239;BME280;44037;55.638;37.356;2023-04-21T06:08:29;99181.28;;;12.03;28.32
58239;BME280;44037;55.638;37.356;2023-04-21T06:10:57;99171.72;;;12.09;28.08
58239;BME280;44037;55.638;37.356;2023-04-21T06:13:24;99169.06;;;12.19;28.86
58239;BME280;44037;55.638;37.356;2023-04-21T06:15:53;99161.22;;;12.28;27.89
58239;BME280;44037;55.638;37.356;2023-04-21T06:18:21;99168.09;;;12.35;28.62
58239;BME280;44037;55.638;37.356;2023-04-21T06:20:49;99169.84;;;12.41;28.63
58239;BME280;44037;55.638;37.356;2023-04-21T06:23:16;99169.75;;;12.49;28.56
58239;BME280;44037;55.638;37.356;2023-04-21T06:25:44;99160.19;;;12.57;28.04
58239;BME280;44037;55.638;37.356;2023-04-21T06:28:11;99157.50;;;12.69;28.29
58239;BME280;44037;55.638;37.356;2023-04-21T06:30:38;99167.81;;;12.85;27.78
58239;BME280;44037;55.638;37.356;2023-04-21T06:33:07;99161.69;;;12.90;27.12
58239;BME280;44037;55.638;37.356;2023-04-21T06:35:34;99170.41;;;12.85;26.67
58239;BME280;44037;55.638;37.356;2023-04-21T06:38:01;99161.78;;;12.77;26.79
58239;BME280;44037;55.638;37.356;2023-04-21T06:40:28;99152.25;;;12.77;26.77
58239;BME280;44037;55.638;37.356;2023-04-21T06:42:55;99152.22;;;12.80;26.99
58239;BME280;44037;55.638;37.356;2023-04-21T06:45:22;99160.00;;;12.85;27.34
58239;BME280;44037;55.638;37.356;2023-04-21T06:47:50;99158.25;;;12.88;26.99
58239;BME280;44037;55.638;37.356;2023-04-21T06:50:18;99153.00;;;12.90;27.46
58239;BME280;44037;55.638;37.356;2023-04-21T06:52:45;99159.94;;;12.91;27.46
58239;BME280;44037;55.638;37.356;2023-04-21T06:55:13;99159.09;;;12.90;27.28
58239;BME280;44037;55.638;37.356;2023-04-21T06:57:40;99152.13;;;12.94;27.22
58239;BME280;44037;55.638;37.356;2023-04-21T07:00:08;99149.44;;;13.03;27.21
58239;BME280;44037;55.638;37.356;2023-04-21T07:02:36;99147.69;;;13.09;26.29
58239;BME280;44037;55.638;37.356;2023-04-21T07:05:04;99156.31;;;13.09;27.22
58239;BME280;44037;55.638;37.356;2023-04-21T07:07:32;99143.34;;;13.08;26.86
58239;BME280;44037;55.638;37.356;2023-04-21T07:10:00;99146.84;;;13.00;25.97
58239;BME280;44037;55.638;37.356;2023-04-21T07:12:33;99146.88;;;12.99;26.93
58239;BME280;44037;55.638;37.356;2023-04-21T07:15:00;99154.72;;;12.93;25.85
58239;BME280;44037;55.638;37.356;2023-04-21T07:17:30;99144.31;;;12.96;26.70
58239;BME280;44037;55.638;37.356;2023-04-21T07:19:58;99141.63;;;13.03;26.41
58239;BME280;44037;55.638;37.356;2023-04-21T07:22:25;99133.78;;;13.10;26.83
58239;BME280;44037;55.638;37.356;2023-04-21T07:24:53;99150.22;;;13.12;26.16
58239;BME280;44037;55.638;37.356;2023-04-21T07:27:21;99133.03;;;12.97;25.06
58239;BME280;44037;55.638;37.356;2023-04-21T07:29:48;99146.19;;;12.78;25.46
58239;BME280;44037;55.638;37.356;2023-04-21T07:32:15;99143.66;;;12.67;25.97
58239;BME280;44037;55.638;37.356;2023-04-21T07:34:42;99135.00;;;12.65;26.35
58239;BME280;44037;55.638;37.356;2023-04-21T07:37:11;99134.97;;;12.71;25.92
58239;BME280;44037;55.638;37.356;2023-04-21T07:39:38;99129.72;;;12.78;26.11
58239;BME280;44037;55.638;37.356;2023-04-21T07:42:07;99125.34;;;12.83;26.60
58239;BME280;44037;55.638;37.356;2023-04-21T07:44:36;99110.53;;;12.94;25.98
58239;BME280;44037;55.638;37.356;2023-04-21T07:47:03;99120.78;;;13.10;26.18
58239;BME280;44037;55.638;37.356;2023-04-21T07:49:31;99106.78;;;13.23;26.95
58239;BME280;44037;55.638;37.356;2023-04-21T07:51:58;99111.00;;;13.32;25.61
58239;BME280;44037;55.638;37.356;2023-04-21T07:54:25;99107.50;;;13.36;26.07
58239;BME280;44037;55.638;37.356;2023-04-21T07:56:52;99101.41;;;13.39;26.25
58239;BME280;44037;55.638;37.356;2023-04-21T07:59:21;99111.84;;;13.40;25.47
58239;BME280;44037;55.638;37.356;2023-04-21T08:01:48;99104.03;;;13.40;26.09
58239;BME280;44037;55.638;37.356;2023-04-21T08:04:16;99097.91;;;13.46;26.01
58239;BME280;44037;55.638;37.356;2023-04-21T08:06:43;99099.53;;;13.53;26.01
58239;BME280;44037;55.638;37.356;2023-04-21T08:09:11;99097.75;;;13.58;25.23
58239;BME280;44037;55.638;37.356;2023-04-21T08:11:38;99090.81;;;13.60;25.96
58239;BME280;44037;55.638;37.356;2023-04-21T08:14:05;99089.91;;;13.61;25.83
58239;BME280;44037;55.638;37.356;2023-04-21T08:16:36;99095.06;;;13.64;25.46
58239;BME280;44037;55.638;37.356;2023-04-21T08:19:03;99084.59;;;13.71;25.90
58239;BME280;44037;55.638;37.356;2023-04-21T08:21:31;99087.09;;;13.77;25.74
58239;BME280;44037;55.638;37.356;2023-04-21T08:23:59;99108.09;;;13.64;24.31
58239;BME280;44037;55.638;37.356;2023-04-21T08:26:26;99089.25;;;13.44;24.42
58239;BME280;44037;55.638;37.356;2023-04-21T08:28:55;99110.97;;;13.36;24.37
58239;BME280;44037;55.638;37.356;2023-04-21T08:31:22;99118.81;;;13.33;25.24
58239;BME280;44037;55.638;37.356;2023-04-21T08:33:51;99093.75;;;13.25;25.68
58239;BME280;44037;55.638;37.356;2023-04-21T08:36:18;99085.91;;;13.29;25.77
58239;BME280;44037;55.638;37.356;2023-04-21T08:38:46;99090.16;;;13.41;25.78
58239;BME280;44037;55.638;37.356;2023-04-21T08:41:13;99077.91;;;13.49;24.80
58239;BME280;44037;55.638;37.356;2023-04-21T08:43:40;99075.28;;;13.51;24.76
58239;BME280;44037;55.638;37.356;2023-04-21T08:46:08;99061.34;;;13.55;25.38
58239;BME280;44037;55.638;37.356;2023-04-21T08:48:36;99058.59;;;13.67;25.14
58239;BME280;44037;55.638;37.356;2023-04-21T08:51:08;99070.59;;;13.78;25.50
58239;BME280;44037;55.638;37.356;2023-04-21T08:53:36;99065.34;;;13.82;25.39
58239;BME280;44037;55.638;37.356;2023-04-21T08:56:04;99054.03;;;13.83;25.72
58239;BME280;44037;55.638;37.356;2023-04-21T08:58:31;99038.34;;;13.88;25.04
58239;BME280;44037;55.638;37.356;2023-04-21T09:00:58;99053.91;;;13.94;25.44
58239;BME280;44037;55.638;37.356;2023-04-21T09:03:26;99052.97;;;14.00;25.63
58239;BME280;44037;55.638;37.356;2023-04-21T09:05:57;99031.25;;;14.01;25.32
58239;BME280;44037;55.638;37.356;2023-04-21T09:08:27;99045.09;;;14.02;25.23
58239;BME280;44037;55.638;37.356;2023-04-21T09:10:56;99050.31;;;14.02;25.52
58239;BME280;44037;55.638;37.356;2023-04-21T09:13:29;99035.59;;;13.99;25.56
58239;BME280;44037;55.638;37.356;2023-04-21T09:15:57;99039.19;;;13.92;24.73
58239;BME280;44037;55.638;37.356;2023-04-21T09:18:26;99027.75;;;14.01;25.73
58239;BME280;44037;55.638;37.356;2023-04-21T09:21:05;99031.09;;;14.10;25.44
58239;BME280;44037;55.638;37.356;2023-04-21T09:23:40;99024.06;;;14.17;25.50
58239;BME280;44037;55.638;37.356;2023-04-21T09:26:07;99035.25;;;14.24;24.87
58239;BME280;44037;55.638;37.356;2023-04-21T09:28:35;99017.94;;;14.20;25.23
58239;BME280;44037;55.638;37.356;2023-04-21T09:31:02;99018.88;;;14.16;25.07
58239;BME280;44037;55.638;37.356;2023-04-21T09:33:32;99015.34;;;14.18;24.70
58239;BME280;44037;55.638;37.356;2023-04-21T09:36:01;99007.50;;;14.20;25.05
58239;BME280;44037;55.638;37.356;2023-04-21T09:38:29;99004.78;;;14.27;25.24
58239;BME280;44037;55.638;37.356;2023-04-21T09:40:58;98998.53;;;14.38;25.24
58239;BME280;44037;55.638;37.356;2023-04-21T09:43:25;99004.53;;;14.43;24.94
58239;BME280;44037;55.638;37.356;2023-04-21T09:45:53;98993.16;;;14.49;25.08
58239;BME280;44037;55.638;37.356;2023-04-21T09:48:23;98995.66;;;14.53;25.49
58239;BME280;44037;55.638;37.356;2023-04-21T09:50:54;98996.34;;;14.66;25.42
58239;BME280;44037;55.638;37.356;2023-04-21T09:53:23;98990.09;;;14.75;25.09
58239;BME280;44037;55.638;37.356;2023-04-21T09:55:53;98983.13;;;14.77;24.98
58239;BME280;44037;55.638;37.356;2023-04-21T09:58:26;98990.94;;;14.79;24.80
58239;BME280;44037;55.638;37.356;2023-04-21T10:00:54;98990.03;;;14.78;24.76
58239;BME280;44037;55.638;37.356;2023-04-21T10:03:26;98986.50;;;14.81;25.19
58239;BME280;44037;55.638;37.356;2023-04-21T10:05:54;98978.69;;;14.81;24.81
58239;BME280;44037;55.638;37.356;2023-04-21T10:08:21;98979.53;;;14.84;24.95
58239;BME280;44037;55.638;37.356;2023-04-21T10:10:49;98975.25;;;14.80;25.28
58239;BME280;44037;55.638;37.356;2023-04-21T10:13:17;98980.38;;;14.85;24.88
58239;BME280;44037;55.638;37.356;2023-04-21T10:15:46;98976.91;;;14.83;25.36
58239;BME280;44037;55.638;37.356;2023-04-21T10:18:18;98968.19;;;14.85;25.57
58239;BME280;44037;55.638;37.356;2023-04-21T10:20:55;98975.78;;;14.98;25.41
58239;BME280;44037;55.638;37.356;2023-04-21T10:23:30;98959.00;;;15.11;25.83
58239;BME280;44037;55.638;37.356;2023-04-21T10:26:09;98950.03;;;15.25;25.62
58239;BME280;44037;55.638;37.356;2023-04-21T10:28:47;98947.06;;;15.40;25.62
58239;BME280;44037;55.638;37.356;2023-04-21T10:31:21;98946.09;;;15.46;24.94
58239;BME280;44037;55.638;37.356;2023-04-21T10:37:17;98932.19;;;15.44;25.90
58239;BME280;44037;55.638;37.356;2023-04-21T10:39:52;98932.19;;;15.44;25.39
58239;BME280;44037;55.638;37.356;2023-04-21T10:42:24;98939.41;;;15.32;25.85
58239;BME280;44037;55.638;37.356;2023-04-21T10:45:09;98924.75;;;15.27;25.98
58239;BME280;44037;55.638;37.356;2023-04-21T10:47:41;98938.56;;;15.32;26.20
58239;BME280;44037;55.638;37.356;2023-04-21T10:50:18;98933.34;;;15.32;26.15
58239;BME280;44037;55.638;37.356;2023-04-21T10:52:51;98919.41;;;15.33;25.89
58239;BME280;44037;55.638;37.356;2023-04-21T10:55:19;98925.41;;;15.36;25.89
58239;BME280;44037;55.638;37.356;2023-04-21T10:57:47;98925.25;;;15.44;26.11
58239;BME280;44037;55.638;37.356;2023-04-21T11:00:16;98918.13;;;15.51;26.53
58239;BME280;44037;55.638;37.356;2023-04-21T11:02:54;98918.63;;;15.67;26.48
58239;BME280;44037;55.638;37.356;2023-04-21T11:05:31;98914.91;;;15.79;26.27
58239;BME280;44037;55.638;37.356;2023-04-21T11:08:09;98914.75;;;15.87;26.32
58239;BME280;44037;55.638;37.356;2023-04-21T11:10:52;98897.13;;;15.95;26.39
58239;BME280;44037;55.638;37.356;2023-04-21T11:13:20;98901.09;;;16.10;26.37
58239;BME280;44037;55.638;37.356;2023-04-21T11:16:02;98913.84;;;16.24;26.48
58239;BME280;44037;55.638;37.356;2023-04-21T11:18:38;98941.59;;;16.28;26.07
58239;BME280;44037;55.638;37.356;2023-04-21T11:21:13;98915.16;;;16.06;26.38
58239;BME280;44037;55.638;37.356;2023-04-21T11:23:50;98902.59;;;15.86;26.70
58239;BME280;44037;55.638;37.356;2023-04-21T11:26:28;98901.69;;;15.87;26.96
58239;BME280;44037;55.638;37.356;2023-04-21T11:28:59;98897.88;;;16.00;26.90
58239;BME280;44037;55.638;37.356;2023-04-21T11:31:27;98890.22;;;16.27;26.61
58239;BME280;44037;55.638;37.356;2023-04-21T11:33:57;98887.88;;;16.49;26.28
58239;BME280;44037;55.638;37.356;2023-04-21T11:36:25;98881.28;;;16.67;26.40
58239;BME280;44037;55.638;37.356;2023-04-21T11:38:52;98896.28;;;16.61;26.06
58239;BME280;44037;55.638;37.356;2023-04-21T11:41:20;98893.94;;;16.18;26.34
58239;BME280;44037;55.638;37.356;2023-04-21T11:43:48;98879.06;;;15.86;26.56
58239;BME280;44037;55.638;37.356;2023-04-21T11:46:17;98871.69;;;15.64;26.97
58239;BME280;44037;55.638;37.356;2023-04-21T11:48:44;98876.84;;;15.67;27.23
58239;BME280;44037;55.638;37.356;2023-04-21T11:51:17;98895.03;;;15.72;26.65
58239;BME280;44037;55.638;37.356;2023-04-21T11:53:46;98876.78;;;15.70;26.21
58239;BME280;44037;55.638;37.356;2023-04-21T11:56:16;98864.63;;;15.69;26.48
58239;BME280;44037;55.638;37.356;2023-04-21T11:58:44;98864.25;;;15.86;26.34
58239;BME280;44037;55.638;37.356;2023-04-21T12:01:14;98865.47;;;16.07;26.49
58239;BME280;44037;55.638;37.356;2023-04-21T12:03:42;98866.13;;;16.16;26.17
58239;BME280;44037;55.638;37.356;2023-04-21T12:06:21;98866.56;;;15.99;26.11
58239;BME280;44037;55.638;37.356;2023-04-21T12:08:54;98852.84;;;15.89;26.17
58239;BME280;44037;55.638;37.356;2023-04-21T12:11:22;98848.81;;;15.75;26.37
58239;BME280;44037;55.638;37.356;2023-04-21T12:13:50;98858.75;;;15.61;26.56
58239;BME280;44037;55.638;37.356;2023-04-21T12:16:17;98859.78;;;15.54;26.79
58239;BME280;44037;55.638;37.356;2023-04-21T12:18:44;98850.81;;;15.65;26.71
58239;BME280;44037;55.638;37.356;2023-04-21T12:21:14;98841.97;;;15.71;26.41
58239;BME280;44037;55.638;37.356;2023-04-21T12:23:43;98850.44;;;15.79;26.62
58239;BME280;44037;55.638;37.356;2023-04-21T12:26:10;98838.94;;;15.88;26.70
58239;BME280;44037;55.638;37.356;2023-04-21T12:28:38;98843.81;;;16.02;26.76
58239;BME280;44037;55.638;37.356;2023-04-21T12:31:05;98850.44;;;16.16;26.59
58239;BME280;44037;55.638;37.356;2023-04-21T12:33:32;98860.03;;;16.15;26.34
58239;BME280;44037;55.638;37.356;2023-04-21T12:36:00;98854.31;;;16.01;26.60
58239;BME280;44037;55.638;37.356;2023-04-21T12:38:27;98832.31;;;16.09;26.79
58239;BME280;44037;55.638;37.356;2023-04-21T12:40:55;98830.03;;;16.30;26.53
58239;BME280;44037;55.638;37.356;2023-04-21T12:43:23;98830.50;;;16.45;26.18
58239;BME280;44037;55.638;37.356;2023-04-21T12:45:50;98832.47;;;16.36;26.44
58239;BME280;44037;55.638;37.356;2023-04-21T12:48:18;98826.63;;;16.26;26.57
58239;BME280;44037;55.638;37.356;2023-04-21T12:50:45;98834.47;;;16.26;26.42
58239;BME280;44037;55.638;37.356;2023-04-21T12:53:12;98824.31;;;16.16;26.43
58239;BME280;44037;55.638;37.356;2023-04-21T12:55:40;98840.47;;;15.97;25.46
58239;BME280;44037;55.638;37.356;2023-04-21T12:58:08;98830.63;;;15.72;25.95
58239;BME280;44037;55.638;37.356;2023-04-21T13:00:37;98833.38;;;15.66;25.54
58239;BME280;44037;55.638;37.356;2023-04-21T13:03:04;98822.31;;;15.56;25.90